createdAt,value
2018-04-14T00:00:11.134Z,100804.65
2018-04-14T00:00:33.934Z,100797.27
2018-04-14T00:00:55.983Z,100797.27
2018-04-14T00:01:18.998Z,100802.11
2018-04-14T00:01:41.048Z,100797.73
2018-04-14T00:02:03.144Z,100807.33
2018-04-14T00:02:25.973Z,100811.25
2018-04-14T00:02:48.023Z,100808.96
2018-04-14T00:03:10.090Z,100816.02
2018-04-14T00:03:32.146Z,100816.41
2018-04-14T00:03:54.999Z,100808.11
2018-04-14T00:04:17.055Z,100807.27
2018-04-14T00:04:39.318Z,100803.73
2018-04-14T00:05:02.139Z,100803.34
2018-04-14T00:05:24.209Z,100802.95
2018-04-14T00:05:46.269Z,100801.97
2018-04-14T00:06:08.326Z,100797.59
2018-04-14T00:06:30.389Z,100807.20
2018-04-14T00:06:52.511Z,100806.73
2018-04-14T00:07:14.560Z,100808.96
2018-04-14T00:07:37.385Z,100812.81
2018-04-14T00:08:00.200Z,100812.42
2018-04-14T00:08:22.246Z,100813.27
2018-04-14T00:08:45.148Z,100811.50
2018-04-14T00:09:07.461Z,100809.35
2018-04-14T00:09:29.520Z,100808.50
2018-04-14T00:09:52.344Z,100799.26
2018-04-14T00:10:15.155Z,100795.83
2018-04-14T00:10:37.275Z,100802.36
2018-04-14T00:10:59.318Z,100804.02
2018-04-14T00:11:22.216Z,100806.73
2018-04-14T00:11:44.981Z,100808.40
2018-04-14T00:12:07.032Z,100809.35
2018-04-14T00:12:29.079Z,100809.70
2018-04-14T00:12:51.144Z,100808.79
2018-04-14T00:13:13.968Z,100820.16
2018-04-14T00:13:36.787Z,100822.88
2018-04-14T00:13:58.888Z,100830.71
2018-04-14T00:14:20.966Z,100840.31
2018-04-14T00:14:43.023Z,100845.54
2018-04-14T00:15:05.079Z,100852.00
2018-04-14T00:15:27.895Z,100852.92
2018-04-14T00:15:49.961Z,100856.45
2018-04-14T00:16:12.020Z,100861.61
2018-04-14T00:16:34.079Z,100864.22
2018-04-14T00:16:56.912Z,100864.67
2018-04-14T00:17:19.765Z,100862.52
2018-04-14T00:17:41.832Z,100858.60
2018-04-14T00:18:03.888Z,100854.61
2018-04-14T00:18:25.948Z,100852.00
2018-04-14T00:18:48.007Z,100851.51
2018-04-14T00:19:10.085Z,100859.91
2018-04-14T00:19:32.291Z,100859.34
2018-04-14T00:19:54.370Z,100860.30
2018-04-14T00:20:17.188Z,100858.89
2018-04-14T00:20:39.248Z,100857.58
2018-04-14T00:21:01.351Z,100860.66
2018-04-14T00:21:23.411Z,100857.23
2018-04-14T00:21:45.467Z,100857.23
2018-04-14T00:22:08.299Z,100860.37
2018-04-14T00:22:31.131Z,100857.23
2018-04-14T00:22:53.194Z,100854.23
2018-04-14T00:23:15.264Z,100856.38
2018-04-14T00:23:37.499Z,100851.90
2018-04-14T00:24:00.324Z,100853.77
2018-04-14T00:24:23.170Z,100847.13
2018-04-14T00:24:46.038Z,100849.74
2018-04-14T00:25:08.095Z,100839.30
2018-04-14T00:25:30.203Z,100846.22
2018-04-14T00:25:52.264Z,100840.99
2018-04-14T00:26:15.097Z,100848.44
2018-04-14T00:26:37.906Z,100855.42
2018-04-14T00:26:59.959Z,100858.43
2018-04-14T00:27:22.020Z,100857.23
2018-04-14T00:27:44.076Z,100855.42
2018-04-14T00:28:06.905Z,100857.13
2018-04-14T00:28:29.007Z,100854.97
2018-04-14T00:28:51.097Z,100860.66
2018-04-14T00:29:13.163Z,100862.06
2018-04-14T00:29:35.990Z,100855.92
2018-04-14T00:29:58.079Z,100861.05
2018-04-14T00:30:20.141Z,100862.45
2018-04-14T00:30:42.936Z,100857.58
2018-04-14T00:31:05.055Z,100858.43
2018-04-14T00:31:27.133Z,100854.52
2018-04-14T00:31:49.194Z,100852.81
2018-04-14T00:32:11.420Z,100852.36
2018-04-14T00:32:33.487Z,100852.81
2018-04-14T00:32:55.557Z,100846.67
2018-04-14T00:33:17.615Z,100846.61
2018-04-14T00:33:39.677Z,100846.67
2018-04-14T00:34:01.737Z,100843.60
2018-04-14T00:34:24.568Z,100845.83
2018-04-14T00:34:47.391Z,100839.22
2018-04-14T00:35:09.483Z,100836.22
2018-04-14T00:35:31.540Z,100837.92
2018-04-14T00:35:54.354Z,100840.59
2018-04-14T00:36:16.413Z,100840.59
2018-04-14T00:36:38.484Z,100835.38
2018-04-14T00:37:02.047Z,100836.68
2018-04-14T00:37:24.087Z,100831.45
2018-04-14T00:37:47.038Z,100830.71
2018-04-14T00:38:09.082Z,100827.54
2018-04-14T00:38:31.140Z,100836.68
2018-04-14T00:38:53.966Z,100825.77
2018-04-14T00:39:16.006Z,100830.54
2018-04-14T00:39:38.917Z,100833.22
2018-04-14T00:40:00.980Z,100832.70
2018-04-14T00:40:23.055Z,100831.84
2018-04-14T00:40:45.119Z,100833.09
2018-04-14T00:41:07.183Z,100829.16
2018-04-14T00:41:29.230Z,100835.30
2018-04-14T00:41:52.056Z,100839.22
2018-04-14T00:42:14.908Z,100835.77
2018-04-14T00:42:36.962Z,100831.45
2018-04-14T00:42:59.192Z,100829.23
2018-04-14T00:43:21.494Z,100825.70
2018-04-14T00:43:43.548Z,100821.39
2018-04-14T00:44:05.602Z,100821.01
2018-04-14T00:44:27.662Z,100828.31
2018-04-14T00:44:49.792Z,100825.25
2018-04-14T00:45:11.865Z,100833.55
2018-04-14T00:45:33.948Z,100834.00
2018-04-14T00:45:56.003Z,100837.46
2018-04-14T00:46:18.058Z,100836.16
2018-04-14T00:46:40.110Z,100835.77
2018-04-14T00:47:02.930Z,100840.92
2018-04-14T00:47:24.999Z,100851.38
2018-04-14T00:47:47.052Z,100847.45
2018-04-14T00:48:09.101Z,100849.61
2018-04-14T00:48:31.932Z,100851.44
2018-04-14T00:48:54.790Z,100850.98
2018-04-14T00:49:16.837Z,100846.22
2018-04-14T00:49:38.883Z,100846.28
2018-04-14T00:50:00.942Z,100845.37
2018-04-14T00:50:22.995Z,100838.38
2018-04-14T00:50:45.191Z,100831.39
2018-04-14T00:51:07.264Z,100833.61
2018-04-14T00:51:29.331Z,100837.53
2018-04-14T00:51:51.467Z,100838.77
2018-04-14T00:52:13.520Z,100837.07
2018-04-14T00:52:36.338Z,100838.77
2018-04-14T00:52:58.389Z,100834.84
2018-04-14T00:53:21.215Z,100839.69
2018-04-14T00:53:44.027Z,100842.30
2018-04-14T00:54:06.079Z,100842.30
2018-04-14T00:54:28.887Z,100842.30
2018-04-14T00:54:50.942Z,100839.69
2018-04-14T00:55:13.003Z,100850.59
2018-04-14T00:55:35.062Z,100857.05
2018-04-14T00:55:57.160Z,100853.66
2018-04-14T00:56:19.219Z,100859.28
2018-04-14T00:56:41.280Z,100863.66
2018-04-14T00:57:03.327Z,100864.96
2018-04-14T00:57:26.134Z,100867.50
2018-04-14T00:57:48.184Z,100864.89
2018-04-14T00:58:11.011Z,100864.05
2018-04-14T00:58:33.838Z,100857.97
2018-04-14T00:58:56.660Z,100853.59
2018-04-14T00:59:18.876Z,100844.45
2018-04-14T00:59:40.924Z,100847.06
2018-04-14T01:00:03.749Z,100846.61
2018-04-14T01:00:26.569Z,100840.46
2018-04-14T01:00:48.623Z,100840.08
2018-04-14T01:01:10.706Z,100840.53
2018-04-14T01:01:32.752Z,100838.70
2018-04-14T01:01:54.817Z,100836.55
2018-04-14T01:02:16.881Z,100837.00
2018-04-14T01:02:39.700Z,100826.55
2018-04-14T01:03:01.757Z,100830.86
2018-04-14T01:03:23.816Z,100825.25
2018-04-14T01:03:45.862Z,100829.09
2018-04-14T01:04:08.677Z,100828.77
2018-04-14T01:04:30.719Z,100834.39
2018-04-14T01:04:53.683Z,100832.17
2018-04-14T01:05:15.748Z,100838.70
2018-04-14T01:05:37.804Z,100838.24
2018-04-14T01:05:59.854Z,100839.09
2018-04-14T01:06:21.957Z,100841.77
2018-04-14T01:06:44.021Z,100841.38
2018-04-14T01:07:06.081Z,100845.69
2018-04-14T01:07:28.145Z,100842.69
2018-04-14T01:07:50.200Z,100838.70
2018-04-14T01:08:13.029Z,100840.85
2018-04-14T01:08:35.850Z,100840.85
2018-04-14T01:08:57.910Z,100840.85
2018-04-14T01:09:19.969Z,100831.71
2018-04-14T01:09:42.022Z,100841.31
2018-04-14T01:10:04.839Z,100846.61
2018-04-14T01:10:27.657Z,100840.92
2018-04-14T01:10:50.482Z,100840.08
2018-04-14T01:11:12.540Z,100839.69
2018-04-14T01:11:35.423Z,100835.77
2018-04-14T01:11:57.483Z,100837.00
2018-04-14T01:12:20.294Z,100833.55
2018-04-14T01:12:42.344Z,100832.77
2018-04-14T01:13:05.203Z,100834.06
2018-04-14T01:13:27.247Z,100831.00
2018-04-14T01:13:49.308Z,100834.06
2018-04-14T01:14:12.133Z,100830.15
2018-04-14T01:14:34.183Z,100830.25
2018-04-14T01:14:56.248Z,100824.86
2018-04-14T01:15:18.307Z,100821.85
2018-04-14T01:15:41.376Z,100818.39
2018-04-14T01:16:03.439Z,100820.09
2018-04-14T01:16:25.492Z,100818.78
2018-04-14T01:16:47.715Z,100817.48
2018-04-14T01:17:09.768Z,100816.17
2018-04-14T01:17:31.832Z,100813.49
2018-04-14T01:17:54.680Z,100820.02
2018-04-14T01:18:16.731Z,100819.63
2018-04-14T01:18:38.785Z,100816.11
2018-04-14T01:19:00.826Z,100819.11
2018-04-14T01:19:22.889Z,100823.48
2018-04-14T01:19:45.159Z,100822.56
2018-04-14T01:20:07.983Z,100821.27
2018-04-14T01:20:30.855Z,100828.31
2018-04-14T01:20:52.905Z,100821.78
2018-04-14T01:21:14.955Z,100820.41
2018-04-14T01:21:37.751Z,100824.33
2018-04-14T01:21:59.838Z,100815.64
2018-04-14T01:22:21.893Z,100809.96
2018-04-14T01:22:43.961Z,100803.89
2018-04-14T01:23:06.041Z,100798.66
2018-04-14T01:23:28.096Z,100802.19
2018-04-14T01:23:50.148Z,100794.28
2018-04-14T01:24:12.205Z,100793.05
2018-04-14T01:24:35.028Z,100788.67
2018-04-14T01:24:57.850Z,100781.22
2018-04-14T01:25:19.919Z,100781.22
2018-04-14T01:25:41.974Z,100779.13
2018-04-14T01:26:04.052Z,100775.16
2018-04-14T01:26:26.107Z,100776.45
2018-04-14T01:26:48.165Z,100773.84
2018-04-14T01:27:11.022Z,100774.77
2018-04-14T01:27:33.099Z,100775.61
2018-04-14T01:27:55.156Z,100771.23
2018-04-14T01:28:17.235Z,100778.61
2018-04-14T01:28:39.309Z,100778.16
2018-04-14T01:29:01.363Z,100776.00
2018-04-14T01:29:23.420Z,100775.16
2018-04-14T01:29:46.239Z,100766.47
2018-04-14T01:30:09.058Z,100766.47
2018-04-14T01:30:32.620Z,100761.23
2018-04-14T01:30:54.688Z,100756.86
2018-04-14T01:31:16.738Z,100756.41
2018-04-14T01:31:38.808Z,100745.95
2018-04-14T01:32:00.880Z,100743.80
2018-04-14T01:32:23.021Z,100745.11
2018-04-14T01:32:45.053Z,100737.59
2018-04-14T01:33:07.121Z,100736.29
2018-04-14T01:33:29.187Z,100725.91
2018-04-14T01:33:51.238Z,100722.84
2018-04-14T01:34:13.297Z,100718.45
2018-04-14T01:34:35.353Z,100712.38
2018-04-14T01:34:57.411Z,100710.23
2018-04-14T01:35:19.466Z,100702.91
2018-04-14T01:35:42.319Z,100697.16
2018-04-14T01:36:04.398Z,100691.94
2018-04-14T01:36:27.424Z,100689.33
2018-04-14T01:36:49.438Z,100689.27
2018-04-14T01:37:11.615Z,100684.50
2018-04-14T01:37:33.705Z,100684.89
2018-04-14T01:37:56.522Z,100681.36
2018-04-14T01:38:18.591Z,100684.95
2018-04-14T01:38:40.663Z,100685.73
2018-04-14T01:39:03.482Z,100680.52
2018-04-14T01:39:25.583Z,100681.81
2018-04-14T01:39:47.633Z,100683.97
2018-04-14T01:40:09.675Z,100680.97
2018-04-14T01:40:31.728Z,100686.66
2018-04-14T01:40:53.784Z,100685.34
2018-04-14T01:41:15.827Z,100688.80
2018-04-14T01:41:37.882Z,100693.58
2018-04-14T01:41:59.932Z,100697.03
2018-04-14T01:42:21.994Z,100707.48
2018-04-14T01:42:44.072Z,100704.94
2018-04-14T01:43:06.916Z,100708.47
2018-04-14T01:43:29.743Z,100720.22
2018-04-14T01:43:52.572Z,100720.16
2018-04-14T01:44:14.634Z,100723.68
2018-04-14T01:44:36.691Z,100726.75
2018-04-14T01:44:58.741Z,100732.83
2018-04-14T01:45:21.549Z,100740.27
2018-04-14T01:45:43.820Z,100743.34
2018-04-14T01:46:05.876Z,100745.43
2018-04-14T01:46:27.934Z,100752.81
2018-04-14T01:46:50.753Z,100753.20
2018-04-14T01:47:12.806Z,100755.03
2018-04-14T01:47:34.847Z,100757.19
2018-04-14T01:47:56.918Z,100768.09
2018-04-14T01:48:19.740Z,100772.41
2018-04-14T01:48:42.557Z,100767.17
2018-04-14T01:49:04.608Z,100773.70
2018-04-14T01:49:27.419Z,100778.55
2018-04-14T01:49:49.478Z,100780.70
2018-04-14T01:50:11.526Z,100794.67
2018-04-14T01:50:33.577Z,100806.36
2018-04-14T01:50:55.733Z,100814.20
2018-04-14T01:51:17.788Z,100834.58
2018-04-14T01:51:39.844Z,100844.18
2018-04-14T01:52:02.665Z,100854.23
2018-04-14T01:52:24.735Z,100865.99
2018-04-14T01:52:46.790Z,100861.23
2018-04-14T01:53:08.868Z,100865.60
2018-04-14T01:53:30.940Z,100854.30
2018-04-14T01:53:53.758Z,100849.54
2018-04-14T01:54:15.819Z,100840.33
2018-04-14T01:54:37.866Z,100835.56
2018-04-14T01:54:59.922Z,100833.73
2018-04-14T01:55:22.746Z,100839.55
2018-04-14T01:55:44.805Z,100843.79
2018-04-14T01:56:06.864Z,100848.62
2018-04-14T01:56:28.912Z,100856.39
2018-04-14T01:56:51.783Z,100855.09
2018-04-14T01:57:13.838Z,100852.86
2018-04-14T01:57:35.887Z,100845.03
2018-04-14T01:57:58.704Z,100837.19
2018-04-14T01:58:21.552Z,100831.97
2018-04-14T01:58:44.401Z,100836.80
2018-04-14T01:59:07.231Z,100829.81
2018-04-14T01:59:30.056Z,100829.87
2018-04-14T01:59:52.111Z,100829.03
2018-04-14T02:00:14.164Z,100828.11
2018-04-14T02:00:36.218Z,100835.10
2018-04-14T02:00:59.041Z,100847.70
2018-04-14T02:01:21.120Z,100857.17
2018-04-14T02:01:43.360Z,100860.70
2018-04-14T02:02:05.433Z,100861.09
2018-04-14T02:02:27.504Z,100859.72
2018-04-14T02:02:50.354Z,100861.94
2018-04-14T02:03:13.182Z,100857.95
2018-04-14T02:03:35.275Z,100859.33
2018-04-14T02:03:57.356Z,100863.64
2018-04-14T02:04:19.432Z,100860.11
2018-04-14T02:04:41.491Z,100860.95
2018-04-14T02:05:03.551Z,100866.64
2018-04-14T02:05:25.682Z,100868.33
2018-04-14T02:05:48.357Z,100865.86
2018-04-14T02:06:10.416Z,100872.32
2018-04-14T02:06:32.471Z,100870.09
2018-04-14T02:06:55.293Z,100869.64
2018-04-14T02:07:17.351Z,100869.64
2018-04-14T02:07:39.416Z,100865.33
2018-04-14T02:08:01.469Z,100869.64
2018-04-14T02:08:23.526Z,100859.65
2018-04-14T02:08:45.718Z,100859.97
2018-04-14T02:09:07.765Z,100859.19
2018-04-14T02:09:29.815Z,100857.42
2018-04-14T02:09:51.869Z,100857.88
2018-04-14T02:10:13.936Z,100867.48
2018-04-14T02:10:35.994Z,100860.95
2018-04-14T02:10:58.047Z,100865.27
2018-04-14T02:11:20.127Z,100870.55
2018-04-14T02:11:42.183Z,100868.41
2018-04-14T02:12:04.244Z,100869.11
2018-04-14T02:12:27.062Z,100863.89
2018-04-14T02:12:49.123Z,100861.27
2018-04-14T02:13:11.184Z,100864.34
2018-04-14T02:13:33.298Z,100861.27
2018-04-14T02:13:55.385Z,100860.42
2018-04-14T02:14:17.444Z,100860.89
2018-04-14T02:14:39.513Z,100862.65
2018-04-14T02:15:01.564Z,100865.27
2018-04-14T02:15:23.620Z,100857.81
2018-04-14T02:15:46.416Z,100858.73
2018-04-14T02:16:08.471Z,100862.65
2018-04-14T02:16:31.287Z,100869.18
2018-04-14T02:16:53.340Z,100871.02
2018-04-14T02:17:15.412Z,100872.71
2018-04-14T02:17:37.459Z,100874.47
2018-04-14T02:18:00.275Z,100874.86
2018-04-14T02:18:22.335Z,100870.09
2018-04-14T02:18:44.392Z,100867.87
2018-04-14T02:19:06.482Z,100863.89
2018-04-14T02:19:28.516Z,100870.09
2018-04-14T02:19:50.573Z,100870.63
2018-04-14T02:20:12.634Z,100869.25
2018-04-14T02:20:34.691Z,100874.47
2018-04-14T02:20:56.758Z,100879.70
2018-04-14T02:21:18.807Z,100881.46
2018-04-14T02:21:40.876Z,100880.55
2018-04-14T02:22:03.695Z,100882.31
2018-04-14T02:22:25.747Z,100888.06
2018-04-14T02:22:47.872Z,100889.30
2018-04-14T02:23:09.915Z,100886.30
2018-04-14T02:23:31.967Z,100882.77
2018-04-14T02:23:54.788Z,100883.62
2018-04-14T02:24:16.877Z,100883.75
2018-04-14T02:24:38.930Z,100878.85
2018-04-14T02:25:00.992Z,100879.24
2018-04-14T02:25:23.039Z,100878.00
2018-04-14T02:25:45.104Z,100873.70
2018-04-14T02:26:07.923Z,100874.09
2018-04-14T02:26:30.743Z,100874.54
2018-04-14T02:26:52.812Z,100866.11
2018-04-14T02:27:14.873Z,100868.27
2018-04-14T02:27:36.931Z,100868.33
2018-04-14T02:27:58.987Z,100870.48
2018-04-14T02:28:21.037Z,100875.84
2018-04-14T02:28:43.107Z,100876.17
2018-04-14T02:29:05.170Z,100871.41
2018-04-14T02:29:27.260Z,100870.03
2018-04-14T02:29:49.322Z,100877.48
2018-04-14T02:30:12.158Z,100877.87
2018-04-14T02:30:34.993Z,100880.09
2018-04-14T02:30:57.069Z,100879.24
2018-04-14T02:31:19.120Z,100879.70
2018-04-14T02:31:41.944Z,100881.07
2018-04-14T02:32:03.990Z,100871.93
2018-04-14T02:32:26.049Z,100875.84
2018-04-14T02:32:48.096Z,100877.16
2018-04-14T02:33:10.142Z,100877.61
2018-04-14T02:33:32.200Z,100875.00
2018-04-14T02:33:54.260Z,100872.00
2018-04-14T02:34:16.336Z,100878.98
2018-04-14T02:34:38.426Z,100873.56
2018-04-14T02:35:00.485Z,100875.39
2018-04-14T02:35:22.545Z,100877.09
2018-04-14T02:35:44.594Z,100876.30
2018-04-14T02:36:06.649Z,100886.30
2018-04-14T02:36:29.431Z,100877.48
2018-04-14T02:36:51.600Z,100882.77
2018-04-14T02:37:13.658Z,100879.31
2018-04-14T02:37:35.821Z,100875.33
2018-04-14T02:37:57.885Z,100875.71
2018-04-14T02:38:19.956Z,100878.39
2018-04-14T02:38:42.025Z,100872.64
2018-04-14T02:39:04.079Z,100870.09
2018-04-14T02:39:26.128Z,100871.47
2018-04-14T02:39:48.218Z,100878.39
2018-04-14T02:40:10.287Z,100874.09
2018-04-14T02:40:32.347Z,100879.31
2018-04-14T02:40:54.409Z,100879.77
2018-04-14T02:41:17.390Z,100881.00
2018-04-14T02:41:39.599Z,100879.77
2018-04-14T02:42:01.665Z,100877.48
2018-04-14T02:42:23.746Z,100877.48
2018-04-14T02:42:45.835Z,100881.86
2018-04-14T02:43:08.643Z,100883.16
2018-04-14T02:43:30.693Z,100881.00
2018-04-14T02:43:52.755Z,100878.92
2018-04-14T02:44:14.810Z,100878.08
2018-04-14T02:44:37.642Z,100881.07
2018-04-14T02:45:00.492Z,100876.70
2018-04-14T02:45:23.329Z,100879.31
2018-04-14T02:45:45.389Z,100882.70
2018-04-14T02:46:07.435Z,100879.24
2018-04-14T02:46:29.491Z,100873.56
2018-04-14T02:46:51.722Z,100875.78
2018-04-14T02:47:13.781Z,100874.47
2018-04-14T02:47:35.840Z,100876.63
2018-04-14T02:47:57.895Z,100877.02
2018-04-14T02:48:19.943Z,100882.84
2018-04-14T02:48:41.998Z,100879.70
2018-04-14T02:49:04.047Z,100877.55
2018-04-14T02:49:26.093Z,100886.30
2018-04-14T02:49:48.149Z,100883.16
2018-04-14T02:50:10.209Z,100886.69
2018-04-14T02:50:32.265Z,100884.85
2018-04-14T02:50:55.171Z,100890.47
2018-04-14T02:51:18.018Z,100883.94
2018-04-14T02:51:40.081Z,100877.87
2018-04-14T02:52:02.134Z,100884.40
2018-04-14T02:52:24.186Z,100883.16
2018-04-14T02:52:47.009Z,100883.16
2018-04-14T02:53:09.840Z,100880.02
2018-04-14T02:53:32.667Z,100871.41
2018-04-14T02:53:54.739Z,100866.70
2018-04-14T02:54:16.795Z,100866.64
2018-04-14T02:54:38.864Z,100857.56
2018-04-14T02:55:00.910Z,100862.33
2018-04-14T02:55:22.988Z,100855.80
2018-04-14T02:55:45.083Z,100857.56
2018-04-14T02:56:07.139Z,100856.19
2018-04-14T02:56:29.201Z,100856.25
2018-04-14T02:56:51.268Z,100853.64
2018-04-14T02:57:13.345Z,100853.97
2018-04-14T02:57:35.459Z,100854.42
2018-04-14T02:57:57.518Z,100857.95
2018-04-14T02:58:19.567Z,100855.34
2018-04-14T02:58:41.694Z,100858.34
2018-04-14T02:59:03.755Z,100852.66
2018-04-14T02:59:26.591Z,100854.42
2018-04-14T02:59:48.656Z,100847.96
2018-04-14T03:00:10.713Z,100848.73
2018-04-14T03:00:32.789Z,100847.44
2018-04-14T03:00:54.852Z,100845.67
2018-04-14T03:01:17.674Z,100846.52
2018-04-14T03:01:39.701Z,100845.67
2018-04-14T03:02:02.517Z,100851.74
2018-04-14T03:02:24.572Z,100843.45
2018-04-14T03:02:47.536Z,100845.21
2018-04-14T03:03:09.605Z,100845.60
2018-04-14T03:03:31.660Z,100848.28
2018-04-14T03:03:53.754Z,100850.50
2018-04-14T03:04:16.584Z,100843.45
2018-04-14T03:04:39.406Z,100842.59
2018-04-14T03:05:01.464Z,100842.14
2018-04-14T03:05:23.562Z,100844.75
2018-04-14T03:05:46.405Z,100841.69
2018-04-14T03:06:08.460Z,100838.55
2018-04-14T03:06:30.515Z,100848.60
2018-04-14T03:06:53.327Z,100849.45
2018-04-14T03:07:15.384Z,100847.69
2018-04-14T03:07:38.201Z,100850.30
2018-04-14T03:08:00.252Z,100845.92
2018-04-14T03:08:22.307Z,100846.31
2018-04-14T03:08:44.368Z,100847.69
2018-04-14T03:09:07.237Z,100846.77
2018-04-14T03:09:30.024Z,100850.69
2018-04-14T03:09:52.077Z,100856.38
2018-04-14T03:10:14.142Z,100852.38
2018-04-14T03:10:36.273Z,100855.45
2018-04-14T03:10:58.347Z,100855.84
2018-04-14T03:11:20.397Z,100853.30
2018-04-14T03:11:42.447Z,100853.30
2018-04-14T03:12:05.386Z,100851.14
2018-04-14T03:12:28.212Z,100845.47
2018-04-14T03:12:51.174Z,100841.48
2018-04-14T03:13:13.232Z,100840.63
2018-04-14T03:13:35.296Z,100843.23
2018-04-14T03:13:57.397Z,100846.70
2018-04-14T03:14:20.211Z,100846.77
2018-04-14T03:14:42.274Z,100841.94
2018-04-14T03:15:04.325Z,100845.00
2018-04-14T03:15:26.382Z,100846.31
2018-04-14T03:15:48.450Z,100844.94
2018-04-14T03:16:10.547Z,100842.78
2018-04-14T03:16:32.595Z,100842.33
2018-04-14T03:16:54.644Z,100838.87
2018-04-14T03:17:16.709Z,100834.55
2018-04-14T03:17:38.777Z,100835.86
2018-04-14T03:18:00.850Z,100836.64
2018-04-14T03:18:22.920Z,100836.71
2018-04-14T03:18:45.745Z,100845.85
2018-04-14T03:19:07.791Z,100841.87
2018-04-14T03:19:30.611Z,100848.01
2018-04-14T03:19:53.499Z,100846.63
2018-04-14T03:20:15.553Z,100852.31
2018-04-14T03:20:37.611Z,100849.63
2018-04-14T03:20:59.743Z,100856.16
2018-04-14T03:21:21.834Z,100854.86
2018-04-14T03:21:44.656Z,100856.23
2018-04-14T03:22:07.474Z,100848.79
2018-04-14T03:22:29.541Z,100848.33
2018-04-14T03:22:51.590Z,100855.70
2018-04-14T03:23:13.635Z,100853.48
2018-04-14T03:23:35.764Z,100860.55
2018-04-14T03:23:58.578Z,100853.09
2018-04-14T03:24:20.635Z,100854.86
2018-04-14T03:24:42.691Z,100850.87
2018-04-14T03:25:04.731Z,100851.33
2018-04-14T03:25:26.792Z,100851.33
2018-04-14T03:25:48.839Z,100853.03
2018-04-14T03:26:10.895Z,100857.47
2018-04-14T03:26:33.743Z,100861.78
2018-04-14T03:26:56.556Z,100858.61
2018-04-14T03:27:18.627Z,100853.38
2018-04-14T03:27:40.696Z,100853.38
2018-04-14T03:28:02.802Z,100856.84
2018-04-14T03:28:24.865Z,100848.26
2018-04-14T03:28:46.950Z,100850.42
2018-04-14T03:29:09.001Z,100856.95
2018-04-14T03:29:31.068Z,100856.09
2018-04-14T03:29:53.133Z,100856.55
2018-04-14T03:30:15.184Z,100858.78
2018-04-14T03:30:37.248Z,100864.00
2018-04-14T03:31:00.083Z,100866.22
2018-04-14T03:31:23.052Z,100873.67
2018-04-14T03:31:45.135Z,100863.61
2018-04-14T03:32:07.954Z,100870.08
2018-04-14T03:32:30.003Z,100869.69
2018-04-14T03:32:52.076Z,100866.69
2018-04-14T03:33:14.158Z,100863.61
2018-04-14T03:33:36.238Z,100861.00
2018-04-14T03:33:59.083Z,100857.93
2018-04-14T03:34:21.160Z,100866.16
2018-04-14T03:34:43.179Z,100867.00
2018-04-14T03:35:05.399Z,100868.70
2018-04-14T03:35:27.452Z,100866.16
2018-04-14T03:35:50.280Z,100867.08
2018-04-14T03:36:13.091Z,100864.39
2018-04-14T03:36:35.140Z,100858.78
2018-04-14T03:36:57.987Z,100866.16
2018-04-14T03:37:20.039Z,100866.09
2018-04-14T03:37:42.083Z,100867.85
2018-04-14T03:38:04.139Z,100865.31
2018-04-14T03:38:26.196Z,100868.24
2018-04-14T03:38:48.245Z,100872.23
2018-04-14T03:39:10.304Z,100867.39
2018-04-14T03:39:32.353Z,100859.91
2018-04-14T03:39:54.433Z,100865.23
2018-04-14T03:40:16.493Z,100863.38
2018-04-14T03:40:38.539Z,100860.48
2018-04-14T03:41:01.506Z,100863.47
2018-04-14T03:41:23.559Z,100868.77
2018-04-14T03:41:45.616Z,100863.09
2018-04-14T03:42:08.439Z,100862.23
2018-04-14T03:42:30.496Z,100864.78
2018-04-14T03:42:52.546Z,100859.55
2018-04-14T03:43:14.599Z,100866.16
2018-04-14T03:43:37.402Z,100864.84
2018-04-14T03:43:59.532Z,100864.84
2018-04-14T03:44:21.586Z,100871.31
2018-04-14T03:44:43.815Z,100868.70
2018-04-14T03:45:05.862Z,100867.39
2018-04-14T03:45:27.921Z,100866.44
2018-04-14T03:45:50.753Z,100866.55
2018-04-14T03:46:12.806Z,100866.83
2018-04-14T03:46:34.875Z,100862.00
2018-04-14T03:46:56.926Z,100863.38
2018-04-14T03:47:19.024Z,100863.77
2018-04-14T03:47:41.075Z,100866.38
2018-04-14T03:48:03.128Z,100869.38
2018-04-14T03:48:25.325Z,100870.68
2018-04-14T03:48:47.393Z,100867.61
2018-04-14T03:49:10.190Z,100865.39
2018-04-14T03:49:32.256Z,100863.30
2018-04-14T03:49:55.070Z,100859.31
2018-04-14T03:50:17.139Z,100860.63
2018-04-14T03:50:39.185Z,100862.78
2018-04-14T03:51:01.236Z,100862.91
2018-04-14T03:51:24.054Z,100861.15
2018-04-14T03:51:46.107Z,100861.08
2018-04-14T03:52:08.168Z,100864.16
2018-04-14T03:52:30.267Z,100861.08
2018-04-14T03:52:52.329Z,100866.70
2018-04-14T03:53:14.443Z,100859.39
2018-04-14T03:53:36.495Z,100861.92
2018-04-14T03:53:58.551Z,100865.91
2018-04-14T03:54:20.620Z,100867.61
2018-04-14T03:54:42.692Z,100867.68
2018-04-14T03:55:04.735Z,100861.92
2018-04-14T03:55:26.796Z,100861.92
2018-04-14T03:55:48.846Z,100865.45
2018-04-14T03:56:10.890Z,100866.77
2018-04-14T03:56:32.953Z,100861.08
2018-04-14T03:56:55.015Z,100862.00
2018-04-14T03:57:17.063Z,100859.77
2018-04-14T03:57:39.914Z,100862.45
2018-04-14T03:58:01.984Z,100858.47
2018-04-14T03:58:24.052Z,100858.02
2018-04-14T03:58:46.094Z,100854.94
2018-04-14T03:59:08.142Z,100851.48
2018-04-14T03:59:30.193Z,100851.94
2018-04-14T03:59:52.251Z,100852.33
2018-04-14T04:00:14.309Z,100854.02
2018-04-14T04:00:37.225Z,100851.02
2018-04-14T04:00:59.279Z,100850.56
2018-04-14T04:01:21.370Z,100846.19
2018-04-14T04:01:43.428Z,100853.17
2018-04-14T04:02:05.493Z,100849.19
2018-04-14T04:02:27.546Z,100844.03
2018-04-14T04:02:49.628Z,100844.03
2018-04-14T04:03:11.711Z,100840.19
2018-04-14T04:03:33.773Z,100837.05
2018-04-14T04:03:55.831Z,100839.27
2018-04-14T04:04:17.875Z,100837.50
2018-04-14T04:04:39.928Z,100840.51
2018-04-14T04:05:01.982Z,100843.12
2018-04-14T04:05:24.035Z,100841.81
2018-04-14T04:05:46.085Z,100844.49
2018-04-14T04:06:08.904Z,100841.03
2018-04-14T04:06:30.960Z,100845.41
2018-04-14T04:06:53.019Z,100837.05
2018-04-14T04:07:15.072Z,100842.27
2018-04-14T04:07:37.966Z,100841.03
2018-04-14T04:08:00.052Z,100840.51
2018-04-14T04:08:22.099Z,100836.66
2018-04-14T04:08:44.147Z,100836.66
2018-04-14T04:09:06.205Z,100839.66
2018-04-14T04:09:28.280Z,100839.27
2018-04-14T04:09:50.339Z,100837.11
2018-04-14T04:10:12.392Z,100828.75
2018-04-14T04:10:34.438Z,100834.44
2018-04-14T04:10:56.492Z,100835.28
2018-04-14T04:11:18.539Z,100837.50
2018-04-14T04:11:40.588Z,100837.89
2018-04-14T04:12:02.642Z,100835.73
2018-04-14T04:12:24.691Z,100834.75
2018-04-14T04:12:46.739Z,100833.06
2018-04-14T04:13:08.818Z,100830.06
2018-04-14T04:13:30.872Z,100825.61
2018-04-14T04:13:52.923Z,100822.68